createdAt,value
2023-09-04T00:00:20.747Z,8.60
2023-09-04T00:02:47.724Z,7.88
2023-09-04T00:05:14.723Z,9.32
2023-09-04T00:07:41.599Z,8.77
2023-09-04T00:10:08.851Z,9.02
2023-09-04T00:12:35.741Z,7.70
2023-09-04T00:15:02.797Z,8.60
2023-09-04T00:17:30.341Z,11.90
2023-09-04T00:19:57.974Z,8.30
2023-09-04T00:22:25.581Z,10.48
2023-09-04T00:24:52.498Z,7.70
2023-09-04T00:27:19.580Z,8.70
2023-09-04T00:29:46.858Z,9.50
2023-09-04T00:32:13.765Z,7.70
2023-09-04T00:34:40.665Z,10.60
2023-09-04T00:37:07.560Z,9.05
2023-09-04T00:39:34.463Z,8.00
2023-09-04T00:42:01.358Z,9.40
2023-09-04T00:44:28.227Z,10.18
2023-09-04T00:46:55.417Z,10.63
2023-09-04T00:49:22.669Z,10.88
2023-09-04T00:51:50.114Z,11.98
2023-09-04T00:54:17.934Z,11.13
2023-09-04T00:56:45.010Z,9.63
2023-09-04T00:59:11.919Z,9.18
2023-09-04T01:01:39.019Z,9.73
2023-09-04T01:04:06.184Z,11.77
2023-09-04T01:06:33.091Z,8.52
2023-09-04T01:09:00.058Z,9.30
2023-09-04T01:11:54.664Z,8.35
2023-09-04T01:14:22.286Z,8.93
2023-09-04T01:16:49.515Z,7.75
2023-09-04T01:19:16.711Z,9.20
2023-09-04T01:21:43.666Z,11.85
2023-09-04T01:24:10.590Z,10.07
2023-09-04T01:27:03.148Z,9.60
2023-09-04T01:29:53.994Z,10.25
2023-09-04T01:32:52.929Z,11.90
2023-09-04T01:35:23.054Z,10.70
2023-09-04T01:37:50.985Z,9.77
2023-09-04T01:40:17.918Z,12.80
2023-09-04T01:42:44.809Z,10.23
2023-09-04T01:45:11.793Z,15.20
2023-09-04T01:47:38.691Z,14.95
2023-09-04T01:50:06.103Z,13.40
2023-09-04T01:52:33.039Z,15.13
2023-09-04T01:55:00.026Z,11.00
2023-09-04T01:57:26.899Z,10.48
2023-09-04T01:59:53.813Z,13.57
2023-09-04T02:02:20.695Z,12.77
2023-09-04T02:04:47.597Z,13.40
2023-09-04T02:07:14.501Z,12.63
2023-09-04T02:09:41.421Z,9.97
2023-09-04T02:12:08.419Z,13.75
2023-09-04T02:14:35.303Z,13.60
2023-09-04T02:17:02.189Z,14.40
2023-09-04T02:19:29.063Z,12.18
2023-09-04T02:21:55.979Z,15.73
2023-09-04T02:24:22.860Z,15.73
2023-09-04T02:26:49.878Z,17.25
2023-09-04T02:29:16.774Z,12.30
2023-09-04T02:31:43.703Z,15.67
2023-09-04T02:34:10.604Z,23.98
2023-09-04T02:36:37.495Z,15.13
2023-09-04T02:39:04.478Z,18.00
2023-09-04T02:41:31.398Z,17.95
2023-09-04T02:43:58.283Z,16.58
2023-09-04T02:46:25.239Z,18.20
2023-09-04T02:48:52.232Z,16.35
2023-09-04T02:51:19.110Z,18.65
2023-09-04T02:53:45.987Z,19.00
2023-09-04T02:56:12.884Z,18.80
2023-09-04T02:58:39.757Z,19.02
2023-09-04T03:01:06.698Z,19.50
2023-09-04T03:03:33.654Z,22.08
2023-09-04T03:06:12.800Z,21.77
2023-09-04T03:08:39.901Z,25.48
2023-09-04T03:11:10.826Z,22.67
2023-09-04T03:13:39.013Z,22.50
2023-09-04T03:16:06.823Z,31.40
2023-09-04T03:18:34.992Z,22.55
2023-09-04T03:21:05.969Z,21.10
2023-09-04T03:23:32.880Z,19.98
2023-09-04T03:25:59.800Z,25.60
2023-09-04T03:28:26.857Z,31.17
2023-09-04T03:30:53.829Z,29.60
2023-09-04T03:33:20.961Z,25.00
2023-09-04T03:35:47.892Z,22.85
2023-09-04T03:38:14.766Z,23.17
2023-09-04T03:40:41.630Z,28.80
2023-09-04T03:43:08.549Z,24.52
2023-09-04T03:45:36.289Z,25.67
2023-09-04T03:48:03.452Z,22.40
2023-09-04T03:50:30.448Z,23.95
2023-09-04T03:52:57.357Z,23.07
2023-09-04T03:55:24.236Z,19.70
2023-09-04T03:57:51.335Z,22.60
2023-09-04T04:00:19.139Z,24.47
2023-09-04T04:05:16.310Z,22.67
2023-09-04T04:07:43.462Z,23.13
2023-09-04T04:10:10.565Z,35.03
2023-09-04T04:12:37.912Z,31.33
2023-09-04T04:15:06.448Z,28.10
2023-09-04T04:17:34.536Z,22.95
2023-09-04T04:20:01.807Z,23.23
2023-09-04T04:22:28.650Z,24.73
2023-09-04T04:24:55.576Z,25.90
2023-09-04T04:27:22.994Z,25.98
2023-09-04T04:29:50.801Z,23.05
2023-09-04T04:32:17.692Z,27.07
2023-09-04T04:34:44.637Z,25.63
2023-09-04T04:37:11.533Z,23.83
2023-09-04T04:39:38.405Z,25.23
2023-09-04T04:42:05.645Z,34.05
2023-09-04T04:44:32.551Z,23.83
2023-09-04T04:46:59.449Z,37.08
2023-09-04T04:49:26.370Z,35.85
2023-09-04T04:51:53.265Z,25.90
2023-09-04T04:54:20.311Z,22.43
2023-09-04T04:56:50.547Z,24.85
2023-09-04T04:59:18.053Z,30.20
2023-09-04T05:01:45.271Z,28.87
2023-09-04T05:04:12.229Z,29.67
2023-09-04T05:06:39.813Z,30.05
2023-09-04T05:09:06.710Z,23.73
2023-09-04T05:11:36.329Z,23.73
2023-09-04T05:14:03.671Z,21.00
2023-09-04T05:16:30.647Z,23.60
2023-09-04T05:18:57.565Z,27.25
2023-09-04T05:21:24.527Z,21.35
2023-09-04T05:23:51.899Z,28.57
2023-09-04T05:26:19.017Z,27.20
2023-09-04T05:28:45.896Z,20.80
2023-09-04T05:31:12.880Z,26.02
2023-09-04T05:33:39.960Z,21.95
2023-09-04T05:36:06.839Z,23.63
2023-09-04T05:38:33.744Z,21.02
2023-09-04T05:41:00.691Z,28.25
2023-09-04T05:43:27.676Z,22.27
2023-09-04T05:45:54.613Z,20.60
2023-09-04T05:48:21.842Z,20.58
2023-09-04T05:50:49.625Z,39.78
2023-09-04T05:53:16.741Z,26.30
2023-09-04T05:55:43.636Z,23.02
2023-09-04T05:58:11.447Z,22.60
2023-09-04T06:00:38.302Z,23.67
2023-09-04T06:03:05.433Z,25.80
2023-09-04T06:05:32.330Z,24.98
2023-09-04T06:07:59.240Z,24.60
2023-09-04T06:10:26.179Z,28.10
2023-09-04T06:12:53.089Z,27.50
2023-09-04T06:15:20.078Z,29.88
2023-09-04T06:17:46.975Z,26.73
2023-09-04T06:20:14.001Z,24.25
2023-09-04T06:22:40.899Z,25.73
2023-09-04T06:25:08.035Z,22.40
2023-09-04T06:27:34.990Z,27.92
2023-09-04T06:30:03.111Z,24.40
2023-09-04T06:32:30.196Z,23.77
2023-09-04T06:34:57.113Z,23.98
2023-09-04T06:37:24.081Z,22.60
2023-09-04T06:39:50.969Z,21.27
2023-09-04T06:42:18.067Z,19.50
2023-09-04T06:44:45.074Z,21.67
2023-09-04T06:47:12.016Z,28.33
2023-09-04T06:49:38.920Z,21.52
2023-09-04T06:52:05.977Z,22.88
2023-09-04T06:54:32.912Z,16.58
2023-09-04T06:56:59.802Z,17.48
2023-09-04T06:59:26.717Z,18.23
2023-09-04T07:01:53.725Z,17.00
2023-09-04T07:04:20.650Z,16.10
2023-09-04T07:06:47.528Z,16.25
2023-09-04T07:09:14.455Z,16.58
2023-09-04T07:11:41.323Z,18.95
2023-09-04T07:14:08.235Z,14.07
2023-09-04T07:16:38.797Z,18.80
2023-09-04T07:19:11.337Z,12.10
2023-09-04T07:21:38.291Z,14.80
2023-09-04T07:24:05.602Z,17.08
2023-09-04T07:26:32.514Z,15.00
2023-09-04T07:28:59.394Z,14.55
2023-09-04T07:31:26.445Z,14.98
2023-09-04T07:33:53.348Z,15.35
2023-09-04T07:36:20.261Z,12.38
2023-09-04T07:38:48.194Z,14.02
2023-09-04T07:41:15.254Z,14.82
2023-09-04T07:43:42.140Z,20.67
2023-09-04T07:46:09.150Z,17.33
2023-09-04T07:48:36.138Z,15.20
2023-09-04T07:51:13.461Z,15.80
2023-09-04T07:53:46.716Z,16.80
2023-09-04T07:56:13.760Z,13.45
2023-09-04T07:58:40.715Z,11.50
2023-09-04T08:01:12.248Z,11.65
2023-09-04T08:03:39.214Z,12.25
2023-09-04T08:06:06.147Z,13.77
2023-09-04T08:08:33.027Z,13.80
2023-09-04T08:10:59.918Z,14.00
2023-09-04T08:13:27.100Z,13.23
2023-09-04T08:15:54.273Z,13.73
2023-09-04T08:18:21.213Z,11.98
2023-09-04T08:20:48.081Z,13.50
2023-09-04T08:23:15.022Z,14.23
2023-09-04T08:25:41.925Z,12.23
2023-09-04T08:28:08.836Z,10.10
2023-09-04T08:30:36.637Z,12.70
2023-09-04T08:33:03.895Z,11.10
2023-09-04T08:35:30.885Z,10.95
2023-09-04T08:37:58.060Z,10.87
2023-09-04T08:40:25.005Z,10.70
2023-09-04T08:42:53.109Z,9.65
2023-09-04T08:45:21.405Z,8.70
2023-09-04T08:47:49.122Z,14.25
2023-09-04T08:52:57.797Z,8.07
2023-09-04T08:55:25.322Z,7.25
2023-09-04T08:57:52.200Z,6.90
2023-09-04T09:00:19.281Z,8.40
2023-09-04T09:02:47.104Z,7.40
2023-09-04T09:05:17.336Z,10.55
2023-09-04T09:07:44.967Z,7.57
2023-09-04T09:10:17.597Z,6.40
2023-09-04T09:12:44.557Z,6.70
2023-09-04T09:15:11.930Z,8.60
2023-09-04T09:17:55.690Z,7.40
2023-09-04T09:20:41.819Z,6.13
2023-09-04T09:23:08.803Z,8.18
2023-09-04T09:25:36.990Z,8.17
2023-09-04T09:28:06.859Z,8.05
2023-09-04T09:30:38.519Z,8.50
2023-09-04T09:33:10.545Z,7.47
2023-09-04T09:35:42.707Z,7.25
2023-09-04T09:38:10.457Z,6.90
2023-09-04T09:40:38.404Z,8.60
2023-09-04T09:43:05.367Z,7.00
2023-09-04T09:45:36.493Z,8.45
2023-09-04T09:48:07.725Z,7.03
2023-09-04T09:50:37.366Z,7.40
2023-09-04T09:53:05.073Z,6.53
2023-09-04T09:55:34.934Z,6.70
2023-09-04T09:58:02.329Z,6.40
2023-09-04T10:00:30.338Z,7.80
2023-09-04T10:02:58.961Z,9.73
2023-09-04T10:05:27.417Z,8.52
2023-09-04T10:08:02.218Z,7.97
2023-09-04T10:10:38.025Z,8.65
2023-09-04T10:13:20.522Z,6.60
2023-09-04T10:15:51.385Z,8.10
2023-09-04T10:18:30.897Z,8.98
2023-09-04T10:21:00.144Z,8.57
2023-09-04T10:23:36.303Z,8.43
2023-09-04T10:26:08.555Z,8.15
2023-09-04T10:28:45.328Z,6.88
2023-09-04T10:31:13.859Z,7.50
2023-09-04T10:33:41.912Z,7.05
2023-09-04T10:36:09.868Z,9.25
2023-09-04T10:38:38.272Z,7.70
2023-09-04T10:41:06.749Z,7.90
2023-09-04T10:43:40.612Z,8.88
2023-09-04T10:46:09.544Z,7.10
2023-09-04T10:48:53.265Z,6.25
2023-09-04T10:51:26.906Z,8.70
2023-09-04T10:53:53.872Z,7.68
2023-09-04T10:56:20.764Z,7.20
2023-09-04T10:59:05.829Z,7.45
2023-09-04T11:01:40.110Z,7.47
2023-09-04T11:04:09.090Z,7.82
2023-09-04T11:06:38.451Z,7.45
2023-09-04T11:09:06.504Z,7.75
2023-09-04T11:11:33.828Z,7.00
2023-09-04T11:14:03.114Z,8.30
2023-09-04T11:16:43.616Z,7.40
2023-09-04T11:19:17.545Z,6.25
2023-09-04T11:21:46.461Z,7.50
2023-09-04T11:24:13.566Z,7.00
2023-09-04T11:26:40.524Z,9.15
2023-09-04T11:29:07.532Z,9.10
2023-09-04T11:31:35.060Z,8.20
2023-09-04T11:34:03.977Z,8.55
2023-09-04T11:36:31.407Z,8.15
2023-09-04T11:39:09.474Z,7.97
2023-09-04T11:41:36.544Z,7.43
2023-09-04T11:44:06.279Z,7.03
2023-09-04T11:46:34.520Z,9.55
2023-09-04T11:49:02.803Z,6.72
2023-09-04T11:51:29.756Z,5.90
2023-09-04T11:53:56.659Z,7.60
2023-09-04T11:56:23.597Z,8.20
2023-09-04T11:58:50.486Z,7.80
2023-09-04T12:01:17.480Z,7.95
2023-09-04T12:03:44.496Z,6.70
2023-09-04T12:06:11.857Z,7.32
2023-09-04T12:08:38.809Z,6.75
2023-09-04T12:11:08.544Z,6.65
2023-09-04T12:13:36.742Z,6.40
2023-09-04T12:16:08.307Z,7.77
2023-09-04T12:18:36.363Z,7.73
2023-09-04T12:21:07.535Z,6.68
2023-09-04T12:23:43.310Z,7.87
2023-09-04T12:26:12.681Z,8.70
2023-09-04T12:28:43.178Z,6.90
2023-09-04T12:31:14.890Z,8.75
2023-09-04T12:33:43.722Z,6.28
2023-09-04T12:36:12.437Z,7.07
2023-09-04T12:38:40.236Z,6.97
2023-09-04T12:41:07.259Z,6.35
2023-09-04T12:43:35.254Z,7.80
2023-09-04T12:46:02.712Z,7.03
2023-09-04T12:48:31.077Z,6.03
2023-09-04T12:50:58.100Z,6.30
2023-09-04T12:53:25.563Z,6.20
2023-09-04T12:55:52.753Z,7.43
2023-09-04T12:58:19.798Z,7.83
2023-09-04T13:00:47.161Z,9.45
2023-09-04T13:03:14.268Z,7.72
2023-09-04T13:05:41.389Z,6.70
2023-09-04T13:08:08.309Z,7.35
2023-09-04T13:10:35.487Z,8.95
2023-09-04T13:13:02.651Z,6.05
2023-09-04T13:15:29.944Z,7.40
2023-09-04T13:17:57.167Z,8.50
2023-09-04T13:20:24.784Z,6.75
2023-09-04T13:22:51.740Z,7.65
2023-09-04T13:25:18.670Z,15.27
2023-09-04T13:27:45.556Z,7.45
2023-09-04T13:30:12.621Z,7.35
2023-09-04T13:32:39.924Z,7.35
2023-09-04T13:35:07.226Z,7.15
2023-09-04T13:37:34.372Z,8.20
2023-09-04T13:40:01.358Z,12.15
2023-09-04T13:42:28.262Z,8.30
2023-09-04T13:44:55.141Z,10.57
2023-09-04T13:47:22.125Z,10.93
2023-09-04T13:49:49.138Z,7.75
2023-09-04T13:52:16.104Z,6.20
2023-09-04T13:54:43.412Z,6.50
2023-09-04T13:57:10.396Z,6.70
2023-09-04T13:59:37.320Z,8.30
2023-09-04T14:02:04.568Z,6.93
2023-09-04T14:04:31.536Z,7.55
2023-09-04T14:06:58.453Z,8.93
2023-09-04T14:09:25.384Z,6.50
2023-09-04T14:11:52.324Z,6.22
2023-09-04T14:14:19.362Z,6.53
2023-09-04T14:16:46.249Z,7.00
2023-09-04T14:19:13.151Z,5.90
2023-09-04T14:21:40.071Z,6.22
2023-09-04T14:24:07.481Z,6.10
2023-09-04T14:26:34.440Z,5.80
2023-09-04T14:29:02.041Z,5.30
2023-09-04T14:31:29.903Z,6.10
2023-09-04T14:33:56.829Z,6.25
2023-09-04T14:36:23.761Z,6.38
2023-09-04T14:38:50.700Z,5.30
2023-09-04T14:41:17.865Z,5.90
2023-09-04T14:43:45.423Z,5.40
2023-09-04T14:46:12.665Z,8.07
2023-09-04T14:48:39.859Z,5.47
2023-09-04T14:51:06.850Z,11.43
2023-09-04T14:53:33.744Z,9.73
2023-09-04T14:56:01.041Z,5.82
2023-09-04T14:58:28.261Z,5.70
2023-09-04T15:00:55.917Z,11.45
2023-09-04T15:03:22.910Z,10.43
2023-09-04T15:05:59.441Z,6.10
2023-09-04T15:08:28.967Z,5.55
2023-09-04T15:10:58.131Z,6.60
2023-09-04T15:13:25.319Z,7.70
2023-09-04T15:15:52.690Z,5.70
2023-09-04T15:18:19.633Z,8.83
2023-09-04T15:20:46.692Z,5.35
2023-09-04T15:23:13.582Z,5.38
2023-09-04T15:25:42.724Z,7.50
2023-09-04T15:28:09.816Z,5.40
2023-09-04T15:30:36.740Z,6.55
2023-09-04T15:33:03.983Z,6.43
2023-09-04T15:35:30.991Z,5.80
2023-09-04T15:37:57.864Z,4.80
2023-09-04T15:40:24.863Z,4.80
2023-09-04T15:42:51.735Z,5.65
2023-09-04T15:45:18.749Z,5.60
2023-09-04T15:47:45.718Z,6.20
2023-09-04T15:50:13.263Z,5.32
2023-09-04T15:52:40.190Z,6.90
2023-09-04T15:55:07.398Z,5.88
2023-09-04T15:57:34.324Z,7.35
2023-09-04T16:00:01.389Z,9.15
2023-09-04T16:02:29.560Z,5.97
2023-09-04T16:04:56.556Z,5.03
2023-09-04T16:07:23.527Z,4.60
2023-09-04T16:09:50.394Z,5.50
2023-09-04T16:12:17.312Z,6.53
2023-09-04T16:14:44.271Z,4.53
2023-09-04T16:17:11.260Z,6.15
2023-09-04T16:19:38.119Z,4.80
2023-09-04T16:22:05.084Z,4.80
2023-09-04T16:24:31.980Z,4.60
2023-09-04T16:26:58.928Z,5.28
2023-09-04T16:29:25.890Z,5.60
2023-09-04T16:31:52.788Z,5.47
2023-09-04T16:34:19.833Z,5.47
2023-09-04T16:36:46.711Z,8.13
2023-09-04T16:39:13.573Z,5.50
2023-09-04T16:41:40.482Z,6.43
2023-09-04T16:44:08.511Z,9.10
2023-09-04T16:46:36.272Z,6.80
2023-09-04T16:49:03.343Z,7.03
2023-09-04T16:51:34.499Z,7.00
2023-09-04T16:54:06.512Z,6.38
2023-09-04T16:56:33.514Z,7.78
2023-09-04T16:59:00.453Z,9.18
2023-09-04T17:01:27.894Z,14.27
2023-09-04T17:03:54.882Z,15.32
2023-09-04T17:06:22.055Z,11.13
2023-09-04T17:08:48.954Z,7.82
2023-09-04T17:11:15.900Z,11.23
2023-09-04T17:13:42.813Z,19.70
2023-09-04T17:16:09.819Z,12.98
2023-09-04T17:18:36.787Z,7.50
2023-09-04T17:21:03.717Z,7.53
2023-09-04T17:23:30.646Z,6.60
2023-09-04T17:26:01.760Z,6.50
2023-09-04T17:28:28.705Z,7.25
2023-09-04T17:30:55.574Z,6.30
2023-09-04T17:33:22.514Z,6.97
2023-09-04T17:35:49.667Z,9.10
2023-09-04T17:38:16.842Z,7.80
2023-09-04T17:40:43.763Z,7.72
2023-09-04T17:43:10.680Z,7.20
2023-09-04T17:45:37.609Z,7.50
2023-09-04T17:48:05.257Z,13.60
2023-09-04T17:50:32.300Z,34.65
2023-09-04T17:52:59.159Z,39.40
2023-09-04T17:55:26.085Z,63.67
2023-09-04T17:57:53.497Z,104.50
2023-09-04T18:00:21.283Z,51.65
2023-09-04T18:02:48.443Z,24.92
2023-09-04T18:05:15.645Z,17.23
2023-09-04T18:07:42.509Z,20.70
2023-09-04T18:10:09.998Z,20.23
2023-09-04T18:12:36.924Z,17.60
2023-09-04T18:15:04.164Z,16.80
2023-09-04T18:17:31.105Z,13.68
2023-09-04T18:19:57.989Z,11.13
2023-09-04T18:22:24.838Z,13.10
2023-09-04T18:24:51.786Z,9.90
2023-09-04T18:27:18.669Z,11.95
2023-09-04T18:29:45.575Z,10.95
2023-09-04T18:32:12.521Z,14.20
2023-09-04T18:34:39.413Z,12.60
2023-09-04T18:37:06.338Z,13.85
2023-09-04T18:39:33.259Z,13.52
2023-09-04T18:42:00.173Z,12.17
2023-09-04T18:44:27.286Z,12.02
2023-09-04T18:46:54.263Z,12.82
2023-09-04T18:49:21.178Z,15.73
2023-09-04T18:51:48.053Z,21.83
2023-09-04T18:54:15.005Z,23.20
2023-09-04T18:56:41.872Z,23.88
2023-09-04T18:59:08.779Z,14.63
2023-09-04T19:01:35.735Z,13.63
2023-09-04T19:04:02.665Z,12.32
2023-09-04T19:06:29.558Z,15.43
2023-09-04T19:08:56.479Z,12.98
2023-09-04T19:11:23.533Z,10.67
2023-09-04T19:13:50.519Z,11.00
2023-09-04T19:16:17.431Z,10.50
2023-09-04T19:18:44.433Z,12.13
2023-09-04T19:21:11.372Z,13.10
2023-09-04T19:23:38.296Z,11.25
2023-09-04T19:26:05.267Z,13.95
2023-09-04T19:28:44.415Z,13.70
2023-09-04T19:31:17.357Z,8.97
2023-09-04T19:33:44.254Z,7.25
2023-09-04T19:36:11.128Z,11.10
2023-09-04T19:38:38.042Z,7.80
2023-09-04T19:41:04.982Z,7.55
2023-09-04T19:43:31.937Z,6.95
2023-09-04T19:45:58.874Z,7.30
2023-09-04T19:48:25.965Z,7.10
2023-09-04T19:50:53.042Z,6.97
2023-09-04T19:53:20.044Z,7.82
2023-09-04T19:55:46.976Z,9.65
2023-09-04T19:58:13.953Z,8.30
2023-09-04T20:00:40.833Z,7.10
2023-09-04T20:03:07.923Z,7.38
2023-09-04T20:05:34.868Z,9.73
2023-09-04T20:08:01.767Z,7.40
2023-09-04T20:10:28.714Z,10.70
2023-09-04T20:12:55.639Z,8.45
2023-09-04T20:15:22.597Z,9.25
2023-09-04T20:17:49.999Z,8.50
2023-09-04T20:20:16.926Z,7.20
2023-09-04T20:22:43.801Z,6.70
2023-09-04T20:25:10.683Z,7.00
2023-09-04T20:27:37.617Z,6.97
2023-09-04T20:30:04.752Z,7.57
2023-09-04T20:32:31.745Z,7.00
2023-09-04T20:34:58.715Z,6.30
2023-09-04T20:37:25.643Z,11.63
2023-09-04T20:39:52.622Z,7.70
2023-09-04T20:42:19.486Z,8.77
2023-09-04T20:44:46.424Z,7.70
2023-09-04T20:47:13.336Z,8.85
2023-09-04T20:49:40.197Z,8.05
2023-09-04T20:52:08.041Z,7.40
2023-09-04T20:54:34.985Z,6.78
2023-09-04T20:57:01.928Z,8.60
2023-09-04T20:59:28.853Z,7.30
2023-09-04T21:01:55.796Z,9.77
2023-09-04T21:04:22.948Z,7.90
2023-09-04T21:06:49.912Z,6.93
2023-09-04T21:09:16.792Z,6.63
2023-09-04T21:11:43.665Z,9.65
2023-09-04T21:14:10.540Z,9.90
2023-09-04T21:16:37.495Z,7.13
2023-09-04T21:19:04.515Z,9.18
2023-09-04T21:21:31.382Z,7.25
2023-09-04T21:23:58.293Z,6.95
2023-09-04T21:26:25.196Z,8.10
2023-09-04T21:28:52.080Z,6.50
2023-09-04T21:31:18.991Z,7.88
2023-09-04T21:33:46.013Z,6.85
2023-09-04T21:36:12.909Z,6.32
2023-09-04T21:38:39.786Z,6.95
2023-09-04T21:41:06.722Z,6.30
2023-09-04T21:43:33.673Z,7.43
2023-09-04T21:46:00.599Z,8.27
2023-09-04T21:48:27.517Z,6.10
2023-09-04T21:50:57.918Z,7.55
2023-09-04T21:53:25.076Z,6.80
2023-09-04T21:55:52.145Z,8.07
2023-09-04T21:58:19.070Z,6.30
2023-09-04T22:00:45.984Z,6.20
2023-09-04T22:03:12.941Z,7.10
2023-09-04T22:05:39.892Z,7.00
2023-09-04T22:08:06.783Z,6.93
2023-09-04T22:10:33.754Z,8.23
2023-09-04T22:13:00.677Z,6.45
2023-09-04T22:15:27.548Z,7.30
2023-09-04T22:17:54.511Z,6.65
2023-09-04T22:20:21.446Z,8.00
2023-09-04T22:22:48.311Z,9.98
2023-09-04T22:25:15.228Z,6.90
2023-09-04T22:27:42.133Z,7.13
2023-09-04T22:30:09.349Z,7.50
2023-09-04T22:32:36.372Z,6.90
2023-09-04T22:37:45.556Z,6.47
2023-09-04T22:40:13.152Z,7.43
2023-09-04T22:42:40.032Z,6.70
2023-09-04T22:45:07.264Z,8.40
2023-09-04T22:47:34.217Z,7.40
2023-09-04T22:50:01.135Z,6.70
2023-09-04T22:52:28.037Z,6.90
2023-09-04T22:54:55.003Z,8.40
2023-09-04T22:57:21.897Z,8.75
2023-09-04T22:59:48.796Z,6.90
2023-09-04T23:02:15.712Z,6.32
2023-09-04T23:04:42.642Z,7.13
2023-09-04T23:07:09.557Z,7.07
2023-09-04T23:09:36.468Z,6.80
2023-09-04T23:12:03.520Z,8.40
2023-09-04T23:14:30.388Z,7.10
2023-09-04T23:16:57.291Z,7.10
2023-09-04T23:19:24.191Z,6.47
2023-09-04T23:21:51.056Z,9.13
2023-09-04T23:24:17.969Z,8.00
2023-09-04T23:26:44.838Z,12.47
2023-09-04T23:29:13.404Z,7.10
2023-09-04T23:31:40.821Z,8.73
2023-09-04T23:34:07.710Z,7.47
2023-09-04T23:36:34.603Z,9.60
2023-09-04T23:39:01.473Z,7.35
2023-09-04T23:41:28.493Z,6.88
2023-09-04T23:43:55.387Z,7.80
2023-09-04T23:46:22.272Z,6.90
2023-09-04T23:48:49.201Z,7.25
2023-09-04T23:51:16.071Z,8.73
2023-09-04T23:53:42.953Z,7.93
2023-09-04T23:56:09.847Z,7.60
2023-09-04T23:58:36.715Z,6.93
